Terminal Aerodrome Forecast
Issued by NWS

Current Version | Previous Version | Graphics & Text | Print | Product List | Glossary On
Versions: 1 2 3 4 5 6 7 8 9 10 11 12 13 14 15 16
000
FTUS41 KPBZ 251137
TAFHLG
TAF
KHLG 251137Z 2512/2612 07005KT P6SM BKN060
      TEMPO 2512/2514 6SM -RA BKN025
     FM252100 09005KT 5SM -SHRA OVC030
     FM260300 VRB05KT P6SM -SHRA OVC050
     FM260800 03010KT P6SM BKN050=

USA.gov is the U.S. government's official web portal to all federal, state and local government web resources and services.